Time;durP1;ratioP1;P1;durP2;ratioP2;P2;SDS_P1;SDS_P2;PMS_P1;PMS_P2;Temp;Humidity;BMP_temperature;BMP_pressure;BME280_temperature;BME280_humidity;BME280_pressure;Samples;Min_cycle;Max_cycle;Signal;HPM_P1;HPM_P2
2023/03/01 00:04:17;;;;;;;2.28;0.93;;;;;;;18.57;27.96;102957.09;16108071;19;129574;-47
2023/03/01 00:09:39;;;;;;;1.92;1.33;;;;;;;18.55;28.35;102952.81;16111152;19;129993;-47
2023/03/01 00:15:01;;;;;;;2.00;1.08;;;;;;;18.51;28.36;102954.25;16115777;19;129407;-47
2023/03/01 00:20:23;;;;;;;1.52;0.98;;;;;;;18.47;28.32;102956.56;16110549;19;129538;-45
2023/03/01 00:25:45;;;;;;;2.08;1.20;;;;;;;18.44;28.17;102957.81;16112070;19;129705;-45
2023/03/01 00:31:19;;;;;;;1.75;1.10;;;;;;;18.41;28.24;102958.19;16112532;19;129657;-46
2023/03/01 00:36:41;;;;;;;3.17;1.00;;;;;;;18.34;27.99;102962.75;16109507;19;131120;-45
2023/03/01 00:42:03;;;;;;;2.10;1.10;;;;;;;18.31;28.15;102963.16;16116285;19;130678;-44
2023/03/01 00:47:25;;;;;;;1.73;1.05;;;;;;;18.25;28.02;102953.72;16128179;19;130497;-47
2023/03/01 00:52:46;;;;;;;1.10;0.80;;;;;;;18.21;28.02;102949.59;16124590;19;131591;-47
2023/03/01 00:58:08;;;;;;;1.33;0.85;;;;;;;18.20;28.02;102955.34;16127158;19;130746;-49
2023/03/01 01:03:30;;;;;;;2.00;1.08;;;;;;;18.17;27.88;102956.59;16124486;19;130932;-47
2023/03/01 01:08:53;;;;;;;2.00;0.82;;;;;;;18.15;27.66;102950.41;16123146;19;129569;-45
2023/03/01 01:14:16;;;;;;;1.20;1.10;;;;;;;18.11;27.77;102944.38;16125848;19;132454;-48
2023/03/01 01:19:38;;;;;;;1.65;0.98;;;;;;;18.08;27.80;102938.34;16126097;19;129607;-45
2023/03/01 01:25:00;;;;;;;2.35;1.05;;;;;;;18.03;27.83;102922.31;16122285;19;130139;-48
2023/03/01 01:30:22;;;;;;;1.50;0.95;;;;;;;18.02;27.40;102917.00;16124710;19;130840;-49
2023/03/01 01:35:45;;;;;;;1.20;0.80;;;;;;;17.99;27.81;102915.44;16123208;19;130317;-45
2023/03/01 01:41:07;;;;;;;1.73;1.30;;;;;;;17.97;27.49;102910.13;16123673;19;131050;-46
2023/03/01 01:46:32;;;;;;;1.20;0.93;;;;;;;17.94;27.71;102901.34;16122023;19;133935;-46
2023/03/01 01:52:05;;;;;;;0.98;0.85;;;;;;;17.92;27.94;102889.59;16122194;19;130392;-47
2023/03/01 01:57:34;;;;;;;1.73;0.80;;;;;;;17.89;27.47;102882.53;16123108;19;130223;-45
2023/03/01 02:03:03;;;;;;;1.02;0.68;;;;;;;17.89;27.67;102884.44;16127062;19;130519;-46
2023/03/01 02:08:30;;;;;;;2.33;0.90;;;;;;;17.87;27.83;102868.03;16120611;19;129158;-44
2023/03/01 02:13:53;;;;;;;1.67;1.10;;;;;;;17.83;27.96;102867.56;16126550;19;129850;-49
2023/03/01 02:19:47;;;;;;;2.30;0.85;;;;;;;17.82;27.54;102854.75;16126161;19;130815;-46
2023/03/01 02:25:20;;;;;;;1.08;0.75;;;;;;;17.77;27.52;102854.47;16122279;19;130958;-46
2023/03/01 02:36:30;;;;;;;2.80;0.70;;;;;;;17.72;27.61;102845.03;16120045;19;131099;-45
2023/03/01 02:41:56;;;;;;;1.40;0.90;;;;;;;17.69;27.50;102844.38;16123783;19;129980;-46
2023/03/01 02:47:17;;;;;;;1.13;0.90;;;;;;;17.66;27.63;102843.91;16120764;19;129535;-44
2023/03/01 02:53:09;;;;;;;1.05;0.90;;;;;;;17.64;27.21;102840.47;16120657;19;131013;-47
2023/03/01 02:58:30;;;;;;;3.08;1.13;;;;;;;17.61;26.97;102843.59;16115976;19;129460;-46
2023/03/01 03:03:52;;;;;;;1.00;0.90;;;;;;;17.57;27.02;102834.00;16112970;19;132446;-46
2023/03/01 03:09:15;;;;;;;1.60;1.10;;;;;;;17.54;27.32;102841.63;16117698;19;129896;-47
2023/03/01 03:14:37;;;;;;;1.13;1.02;;;;;;;17.51;27.00;102846.66;16120147;19;129773;-47
2023/03/01 03:19:59;;;;;;;2.70;1.20;;;;;;;17.48;26.60;102853.41;16117817;19;131392;-46
2023/03/01 03:25:22;;;;;;;1.55;1.30;;;;;;;17.45;26.68;102842.75;16117885;19;130103;-46
2023/03/01 03:30:44;;;;;;;3.65;1.40;;;;;;;17.44;26.55;102840.16;16117633;19;131164;-46
2023/03/01 03:36:11;;;;;;;2.08;0.90;;;;;;;17.43;27.01;102844.84;16121862;19;130628;-48
2023/03/01 03:41:35;;;;;;;1.48;1.00;;;;;;;17.41;26.84;102846.09;16119937;19;130564;-46
2023/03/01 03:46:57;;;;;;;1.55;1.00;;;;;;;17.39;26.93;102835.19;16118854;19;131216;-45
2023/03/01 03:52:19;;;;;;;1.52;1.00;;;;;;;17.39;26.64;102821.38;16115462;19;129938;-45
2023/03/01 03:57:41;;;;;;;1.73;1.20;;;;;;;17.38;26.71;102825.19;16112976;19;130208;-49
2023/03/01 04:03:03;;;;;;;1.88;1.10;;;;;;;17.35;26.85;102820.06;16116232;19;129586;-46
2023/03/01 04:08:26;;;;;;;1.67;0.90;;;;;;;17.32;26.81;102825.97;16115310;19;131772;-44
2023/03/01 04:13:48;;;;;;;3.83;1.00;;;;;;;17.30;26.47;102823.38;16116074;19;130640;-46
2023/03/01 04:19:09;;;;;;;1.70;1.00;;;;;;;17.29;26.75;102827.22;16127637;19;129945;-47
2023/03/01 04:24:31;;;;;;;2.05;1.15;;;;;;;17.28;26.74;102824.63;16133557;19;129567;-46
2023/03/01 04:29:53;;;;;;;2.78;1.15;;;;;;;17.26;26.81;102815.63;16134234;19;129291;-45
2023/03/01 04:35:15;;;;;;;2.90;1.10;;;;;;;17.23;26.55;102822.41;16130903;19;130137;-46
2023/03/01 04:40:37;;;;;;;1.70;1.10;;;;;;;17.22;26.40;102817.94;16133570;19;129824;-46
2023/03/01 04:46:09;;;;;;;1.27;1.08;;;;;;;17.20;26.69;102812.59;16130757;19;129560;-48
2023/03/01 04:51:32;;;;;;;1.50;1.20;;;;;;;17.16;26.41;102804.88;16130275;19;131112;-48
2023/03/01 04:56:54;;;;;;;1.60;1.08;;;;;;;17.13;26.26;102800.56;16130261;19;133327;-46
2023/03/01 05:02:16;;;;;;;3.22;1.48;;;;;;;17.11;26.33;102794.38;16123810;19;129506;-50
2023/03/01 05:07:38;;;;;;;1.63;1.20;;;;;;;17.09;26.06;102788.19;16127146;19;129716;-48
2023/03/01 05:13:00;;;;;;;1.65;1.25;;;;;;;17.08;26.20;102781.78;16126452;19;130333;-47
2023/03/01 05:18:25;;;;;;;1.88;1.23;;;;;;;17.07;25.99;102773.69;16125392;19;129666;-51
2023/03/01 05:23:48;;;;;;;1.57;0.90;;;;;;;17.04;26.10;102763.00;16124884;19;130922;-45
2023/03/01 05:29:09;;;;;;;1.20;1.00;;;;;;;17.04;26.07;102763.00;16125058;19;130601;-44
2023/03/01 05:34:35;;;;;;;1.05;0.90;;;;;;;17.03;26.20;102772.34;16124541;19;130058;-46
2023/03/01 05:39:56;;;;;;;1.83;0.98;;;;;;;17.00;26.35;102772.72;16120920;19;129978;-44
2023/03/01 05:45:18;;;;;;;1.48;1.00;;;;;;;17.00;26.42;102761.66;16123466;19;134130;-46
2023/03/01 05:50:44;;;;;;;1.15;0.80;;;;;;;16.99;26.09;102759.94;16122399;19;130655;-46
2023/03/01 05:56:06;;;;;;;1.70;0.80;;;;;;;16.98;26.58;102759.09;16123634;19;130091;-47
2023/03/01 06:01:27;;;;;;;1.58;1.00;;;;;;;16.98;26.67;102758.25;16120535;19;129458;-44
2023/03/01 06:06:49;;;;;;;1.25;0.90;;;;;;;17.08;26.54;102756.06;16122966;19;130324;-46
2023/03/01 06:12:11;;;;;;;1.15;0.80;;;;;;;17.46;26.35;102755.03;16123718;19;129275;-50
2023/03/01 06:17:37;;;;;;;1.52;0.88;;;;;;;17.93;25.72;102744.56;16121898;19;135327;-50
2023/03/01 06:22:59;;;;;;;3.17;0.70;;;;;;;18.42;25.92;102738.22;16119142;19;131013;-51
2023/03/01 06:28:22;;;;;;;3.15;0.77;;;;;;;18.94;25.16;102737.94;16116750;19;130768;-49
2023/03/01 06:33:44;;;;;;;1.10;0.80;;;;;;;19.54;25.08;102734.63;16119356;19;131173;-48
2023/03/01 06:39:06;;;;;;;1.20;0.85;;;;;;;20.02;24.56;102736.44;16119643;19;130512;-47
2023/03/01 06:44:28;;;;;;;1.75;0.80;;;;;;;20.16;24.61;102744.78;16118777;19;130215;-47
2023/03/01 06:49:50;;;;;;;1.30;0.80;;;;;;;20.16;24.64;102748.44;16133371;19;130495;-59
2023/03/01 06:55:13;;;;;;;2.33;0.60;;;;;;;20.05;24.51;102755.47;16142065;19;130143;-56
2023/03/01 07:00:34;;;;;;;1.25;0.70;;;;;;;19.92;24.63;102767.41;16133084;19;133137;-53
2023/03/01 07:05:56;;;;;;;1.42;0.70;;;;;;;19.78;24.87;102762.88;16144475;19;129565;-51
2023/03/01 07:11:18;;;;;;;1.92;0.80;;;;;;;19.60;24.79;102755.97;16136464;19;131068;-48
2023/03/01 07:16:40;;;;;;;0.88;0.57;;;;;;;19.44;24.99;102756.34;16130166;19;131646;-45
2023/03/01 07:22:04;;;;;;;0.93;0.75;;;;;;;19.33;25.03;102761.41;16120611;19;129649;-46
2023/03/01 07:27:25;;;;;;;2.05;0.75;;;;;;;19.19;25.21;102760.47;16116784;19;129807;-51
2023/03/01 07:32:47;;;;;;;3.25;0.70;;;;;;;19.08;25.33;102764.66;16117369;19;129387;-45
2023/03/01 07:38:09;;;;;;;1.35;0.80;;;;;;;18.96;25.36;102766.31;16120500;19;131148;-48
2023/03/01 07:43:32;;;;;;;3.13;0.95;;;;;;;18.87;25.22;102750.88;16116605;19;130661;-48
2023/03/01 07:48:53;;;;;;;1.58;0.88;;;;;;;19.17;25.56;102753.41;16116381;19;129799;-48
2023/03/01 07:54:15;;;;;;;1.25;0.85;;;;;;;19.78;24.96;102746.22;16117974;19;129362;-49
2023/03/01 07:59:37;;;;;;;4.85;0.80;;;;;;;20.51;24.53;102755.69;16113779;19;130632;-50
2023/03/01 08:04:59;;;;;;;2.50;1.08;;;;;;;21.46;23.47;102758.06;16116630;19;131093;-51
2023/03/01 08:10:21;;;;;;;1.60;0.77;;;;;;;22.34;23.25;102749.22;16115762;19;129486;-49
2023/03/01 08:15:43;;;;;;;1.58;0.80;;;;;;;23.41;22.27;102755.59;16112801;19;130006;-52
2023/03/01 08:21:07;;;;;;;1.58;1.00;;;;;;;24.37;21.34;102757.69;16111416;19;130015;-52
2023/03/01 08:26:30;;;;;;;1.05;0.60;;;;;;;25.00;20.64;102760.84;16112284;19;133034;-48
2023/03/01 08:31:52;;;;;;;0.90;0.80;;;;;;;25.40;20.08;102768.44;16114957;19;129849;-46
2023/03/01 08:37:14;;;;;;;2.33;1.00;;;;;;;25.64;20.04;102765.56;16115964;19;129871;-50
2023/03/01 08:42:36;;;;;;;2.15;0.80;;;;;;;25.62;19.67;102764.97;16110429;19;131688;-51
2023/03/01 08:47:58;;;;;;;1.42;0.80;;;;;;;24.97;19.67;102751.00;16111309;19;130574;-51
2023/03/01 08:53:20;;;;;;;1.77;0.90;;;;;;;24.06;20.26;102740.94;16112519;19;130543;-51
2023/03/01 08:58:48;;;;;;;3.78;0.80;;;;;;;23.24;20.67;102733.91;16112538;19;129408;-49
2023/03/01 09:04:11;;;;;;;1.58;0.98;;;;;;;22.57;21.56;102740.19;16125473;19;130423;-48
2023/03/01 09:09:33;;;;;;;2.70;0.88;;;;;;;22.02;21.90;102726.91;16129288;19;130966;-50
2023/03/01 09:14:55;;;;;;;2.05;1.10;;;;;;;21.56;22.11;102712.19;16127081;19;129664;-48
2023/03/01 09:20:16;;;;;;;2.08;1.05;;;;;;;21.14;22.75;102712.59;16126281;19;130219;-50
2023/03/01 09:25:38;;;;;;;2.33;1.20;;;;;;;20.79;22.99;102702.66;16123792;19;129074;-48
2023/03/01 09:31:01;;;;;;;4.43;1.00;;;;;;;20.49;23.28;102691.97;16123708;19;130094;-51
2023/03/01 09:36:28;;;;;;;1.85;1.15;;;;;;;20.26;23.28;102681.31;16125281;19;129980;-48
2023/03/01 09:42:02;;;;;;;1.50;1.00;;;;;;;20.05;23.62;102685.19;16125252;19;130680;-47
2023/03/01 09:47:28;;;;;;;4.55;1.10;;;;;;;19.81;23.33;102668.88;16125773;19;130869;-47
2023/03/01 09:53:07;;;;;;;1.38;1.10;;;;;;;19.84;23.69;102673.16;16127295;19;129279;-46
2023/03/01 09:58:47;;;;;;;1.23;0.90;;;;;;;20.13;23.62;102671.91;16125552;19;130219;-51
2023/03/01 10:04:29;;;;;;;3.03;1.17;;;;;;;20.59;23.01;102670.13;16123636;19;129500;-46
2023/03/01 10:09:51;;;;;;;2.35;1.00;;;;;;;20.99;22.51;102663.63;16128400;19;130196;-46
2023/03/01 10:15:29;;;;;;;2.13;1.15;;;;;;;21.33;22.73;102643.97;16126124;19;129495;-47
2023/03/01 10:21:00;;;;;;;2.40;1.02;;;;;;;21.67;22.34;102639.06;16124852;19;129581;-46
2023/03/01 10:26:49;;;;;;;2.97;1.20;;;;;;;21.97;22.17;102641.19;16121579;19;129202;-46
2023/03/01 10:32:11;;;;;;;2.70;1.02;;;;;;;22.08;21.90;102634.88;16120452;19;129507;-42
2023/03/01 10:37:33;;;;;;;1.80;1.13;;;;;;;22.10;21.84;102634.66;16121322;19;129891;-44
2023/03/01 10:42:58;;;;;;;4.13;1.30;;;;;;;21.97;21.64;102635.63;16119373;19;130553;-43
2023/03/01 10:48:28;;;;;;;1.80;1.00;;;;;;;21.79;21.58;102622.50;16120987;19;129511;-45
2023/03/01 10:53:51;;;;;;;1.73;1.17;;;;;;;21.51;21.73;102627.41;16122091;19;129928;-43
2023/03/01 10:59:25;;;;;;;2.65;1.40;;;;;;;21.32;21.85;102622.78;16118767;19;131711;-44
2023/03/01 11:05:12;;;;;;;1.80;0.98;;;;;;;21.10;22.07;102617.56;16118070;19;130638;-46
2023/03/01 11:10:36;;;;;;;2.70;1.13;;;;;;;20.89;22.10;102605.69;16116069;19;133720;-44
2023/03/01 11:16:07;;;;;;;2.20;1.25;;;;;;;20.72;22.26;102596.09;16112520;19;130671;-42
2023/03/01 11:21:33;;;;;;;3.88;1.58;;;;;;;20.53;22.73;102598.72;16117065;19;133845;-46
2023/03/01 11:26:56;;;;;;;5.15;1.73;;;;;;;20.37;22.52;102601.97;16121833;19;129217;-43
2023/03/01 11:32:20;;;;;;;3.15;1.38;;;;;;;20.24;22.60;102598.16;16113489;19;131213;-45
2023/03/01 11:38:01;;;;;;;3.47;1.43;;;;;;;20.14;22.73;102600.53;16117223;19;129655;-45
2023/03/01 11:43:33;;;;;;;3.15;1.77;;;;;;;20.01;22.73;102589.44;16115729;19;129735;-43
2023/03/01 11:49:22;;;;;;;3.95;2.10;;;;;;;19.89;23.05;102590.03;16120005;19;131788;-45
2023/03/01 11:54:53;;;;;;;2.78;1.60;;;;;;;19.78;23.10;102585.13;16114190;19;130271;-44
2023/03/01 12:00:44;;;;;;;3.40;1.55;;;;;;;19.67;23.52;102561.63;16114620;19;131407;-44
2023/03/01 12:06:17;;;;;;;4.93;1.70;;;;;;;19.57;23.60;102553.72;16115273;19;130215;-43
2023/03/01 12:12:09;;;;;;;3.38;1.67;;;;;;;19.48;23.61;102536.44;16116395;19;129610;-43
2023/03/01 12:17:31;;;;;;;4.13;1.60;;;;;;;19.37;23.36;102543.47;16111954;19;131865;-43
2023/03/01 12:23:30;;;;;;;4.85;1.52;;;;;;;19.30;23.37;102533.44;16113211;19;129910;-42
2023/03/01 12:29:24;;;;;;;3.08;1.40;;;;;;;19.21;23.53;102530.00;16115003;19;130091;-45
2023/03/01 12:35:20;;;;;;;4.65;1.60;;;;;;;19.13;23.60;102508.84;16116188;19;131665;-41
2023/03/01 12:40:42;;;;;;;2.92;1.45;;;;;;;19.05;23.78;102509.03;16125166;19;129757;-44
2023/03/01 12:46:32;;;;;;;3.58;1.65;;;;;;;19.07;23.38;102513.31;16131189;19;130301;-42
2023/03/01 12:52:01;;;;;;;2.50;1.60;;;;;;;19.20;23.30;102501.38;16129279;19;131119;-42
2023/03/01 12:57:36;;;;;;;2.45;1.35;;;;;;;19.47;23.46;102498.66;16127402;19;129841;-46
2023/03/01 13:03:15;;;;;;;2.92;1.30;;;;;;;19.78;23.16;102477.69;16128323;19;131600;-44
2023/03/01 13:08:57;;;;;;;3.05;1.40;;;;;;;19.99;22.92;102451.59;16125670;19;129621;-42
2023/03/01 13:14:25;;;;;;;2.47;1.48;;;;;;;20.11;22.65;102448.13;16128967;19;129945;-45
2023/03/01 13:19:57;;;;;;;2.97;1.48;;;;;;;20.18;22.78;102439.78;16129222;19;129274;-42
2023/03/01 13:25:20;;;;;;;5.28;1.80;;;;;;;20.10;22.49;102438.97;16126244;19;131150;-44
2023/03/01 13:30:43;;;;;;;2.72;1.50;;;;;;;20.01;22.32;102433.84;16124902;19;131327;-47
2023/03/01 13:36:08;;;;;;;2.40;1.30;;;;;;;19.87;22.42;102436.66;16127829;19;130627;-44
2023/03/01 13:41:39;;;;;;;2.17;1.30;;;;;;;19.75;22.74;102430.94;16126841;19;129802;-44
2023/03/01 13:47:07;;;;;;;2.42;1.17;;;;;;;19.61;22.95;102415.38;16128715;19;129079;-46
2023/03/01 13:52:39;;;;;;;2.40;1.10;;;;;;;19.49;22.59;102410.47;16124414;19;131542;-43
2023/03/01 13:58:13;;;;;;;2.40;1.25;;;;;;;19.41;23.08;102419.00;16124103;19;129384;-42
2023/03/01 14:03:41;;;;;;;3.53;1.50;;;;;;;19.30;22.87;102412.22;16123468;19;129693;-45
2023/03/01 14:09:24;;;;;;;3.47;1.50;;;;;;;19.20;23.21;102411.75;16122370;19;129430;-43
2023/03/01 14:15:04;;;;;;;3.08;1.83;;;;;;;19.14;22.67;102395.94;16124303;19;129345;-45
2023/03/01 14:20:30;;;;;;;1.85;1.40;;;;;;;19.20;22.88;102384.00;16122029;19;129329;-48
2023/03/01 14:25:56;;;;;;;1.85;1.20;;;;;;;19.34;22.86;102385.72;16123319;19;130335;-45
2023/03/01 14:31:38;;;;;;;2.05;1.30;;;;;;;19.49;22.52;102381.84;16118337;19;129656;-46
2023/03/01 14:37:19;;;;;;;3.85;1.60;;;;;;;19.61;22.72;102369.00;16121392;19;129769;-42
2023/03/01 14:42:40;;;;;;;2.05;1.40;;;;;;;19.70;22.65;102369.63;16121336;19;129535;-45
2023/03/01 14:48:05;;;;;;;4.50;1.77;;;;;;;19.77;22.16;102372.38;16120316;19;129392;-50
2023/03/01 14:53:29;;;;;;;3.37;1.50;;;;;;;19.76;22.43;102356.78;16120543;19;129498;-48
2023/03/01 14:58:59;;;;;;;2.33;1.58;;;;;;;19.69;22.38;102335.44;16121706;19;129799;-43
2023/03/01 15:04:22;;;;;;;1.65;1.40;;;;;;;19.60;22.32;102322.88;16118450;19;131130;-51
2023/03/01 15:09:45;;;;;;;1.48;1.17;;;;;;;19.51;22.30;102324.19;16120649;19;129388;-43
2023/03/01 15:15:47;;;;;;;1.90;1.30;;;;;;;19.40;22.17;102327.66;16117490;19;129747;-45
2023/03/01 15:21:15;;;;;;;1.95;1.13;;;;;;;19.32;22.50;102323.19;16111412;19;129851;-44
2023/03/01 15:26:44;;;;;;;1.73;1.17;;;;;;;19.24;22.65;102313.16;16108146;19;129650;-46
2023/03/01 15:32:26;;;;;;;3.47;1.30;;;;;;;19.15;22.34;102315.28;16109377;19;129867;-43
2023/03/01 15:37:49;;;;;;;1.77;1.17;;;;;;;19.06;22.37;102314.69;16110813;19;129663;-43
2023/03/01 15:43:38;;;;;;;1.38;1.00;;;;;;;19.11;22.61;102310.38;16108693;19;129816;-46
2023/03/01 15:49:03;;;;;;;1.85;1.40;;;;;;;19.26;22.19;102311.03;16107998;19;129378;-44
2023/03/01 15:54:27;;;;;;;1.23;1.00;;;;;;;19.50;22.30;102303.06;16112336;19;130890;-44
2023/03/01 15:59:49;;;;;;;3.03;1.60;;;;;;;19.56;21.42;102291.09;16116226;19;133879;-44
2023/03/01 16:05:22;;;;;;;1.83;1.33;;;;;;;19.69;21.72;102296.56;16116379;19;129625;-45
2023/03/01 16:10:45;;;;;;;6.13;1.77;;;;;;;19.83;21.64;102289.06;16113224;19;129602;-45
2023/03/01 16:16:12;;;;;;;4.97;1.45;;;;;;;19.94;21.69;102290.25;16112743;19;129340;-45
2023/03/01 16:21:34;;;;;;;1.80;1.20;;;;;;;19.97;21.62;102283.44;16114083;19;129426;-43
2023/03/01 16:26:56;;;;;;;2.75;1.05;;;;;;;19.96;21.66;102281.72;16113714;19;130291;-44
2023/03/01 16:32:18;;;;;;;1.75;1.20;;;;;;;19.89;21.41;102273.41;16113639;19;130294;-48
2023/03/01 16:37:41;;;;;;;1.88;1.00;;;;;;;19.80;21.66;102275.59;16110670;19;130290;-46
2023/03/01 16:43:03;;;;;;;1.88;1.15;;;;;;;19.67;21.94;102273.75;16112433;19;131943;-44
2023/03/01 16:48:25;;;;;;;1.10;1.00;;;;;;;19.56;21.91;102271.66;16110943;19;130763;-48
2023/03/01 16:53:48;;;;;;;2.35;1.10;;;;;;;19.47;22.14;102272.97;16114155;19;130432;-43
2023/03/01 16:59:09;;;;;;;2.17;1.08;;;;;;;19.38;22.43;102264.88;16111532;19;129356;-44
2023/03/01 17:04:31;;;;;;;1.40;1.10;;;;;;;19.30;22.48;102283.69;16110711;19;130321;-45
2023/03/01 17:09:53;;;;;;;2.63;1.38;;;;;;;19.21;22.52;102289.50;16112798;19;129145;-42
2023/03/01 17:15:15;;;;;;;1.80;1.30;;;;;;;19.14;22.20;102287.75;16109876;19;129198;-44
2023/03/01 17:20:37;;;;;;;5.00;1.50;;;;;;;19.04;22.05;102289.06;16111381;19;130708;-42
2023/03/01 17:25:59;;;;;;;2.45;1.17;;;;;;;18.95;22.13;102284.81;16120282;19;129858;-44
2023/03/01 17:31:21;;;;;;;3.55;1.70;;;;;;;18.86;22.21;102306.38;16126055;19;129477;-42
2023/03/01 17:36:44;;;;;;;4.45;1.35;;;;;;;18.82;22.48;102305.09;16120440;19;129918;-40
2023/03/01 17:42:06;;;;;;;3.20;1.40;;;;;;;18.96;22.88;102305.91;16125436;19;131852;-42
2023/03/01 17:47:28;;;;;;;4.28;1.30;;;;;;;19.16;22.89;102310.59;16125857;19;129750;-42
2023/03/01 17:52:50;;;;;;;3.63;1.25;;;;;;;19.25;22.47;102312.09;16128231;19;129320;-40
2023/03/01 17:58:13;;;;;;;2.38;1.40;;;;;;;19.28;22.46;102308.91;16125947;19;129974;-41
2023/03/01 18:03:35;;;;;;;1.55;1.05;;;;;;;19.25;22.61;102317.66;16126218;19;130300;-40
2023/03/01 18:08:57;;;;;;;1.63;0.90;;;;;;;19.19;23.04;102324.03;16123594;19;131707;-41
2023/03/01 18:14:19;;;;;;;4.13;1.30;;;;;;;19.12;22.73;102323.19;16122041;19;130625;-41
2023/03/01 18:19:41;;;;;;;2.50;1.10;;;;;;;19.12;22.86;102323.19;16122636;19;129626;-40
2023/03/01 18:25:04;;;;;;;1.80;1.20;;;;;;;19.17;22.88;102329.78;16116948;19;129269;-42
2023/03/01 18:30:26;;;;;;;3.60;1.58;;;;;;;19.23;23.14;102325.31;16118796;19;129762;-41
2023/03/01 18:35:48;;;;;;;2.10;1.25;;;;;;;19.25;22.87;102328.75;16118250;19;130882;-43
2023/03/01 18:41:10;;;;;;;2.95;1.13;;;;;;;19.24;23.06;102332.59;16121360;19;129325;-40
2023/03/01 18:46:35;;;;;;;1.88;0.93;;;;;;;19.24;23.27;102326.19;16119697;19;130201;-40
2023/03/01 18:51:58;;;;;;;2.80;0.95;;;;;;;19.36;23.13;102316.97;16118651;19;129377;-40
2023/03/01 18:57:22;;;;;;;1.95;0.90;;;;;;;19.69;22.99;102299.34;16119044;19;129454;-42
2023/03/01 19:02:46;;;;;;;2.65;0.80;;;;;;;20.04;23.01;102295.38;16120590;19;129488;-42
2023/03/01 19:08:08;;;;;;;1.23;0.93;;;;;;;20.32;22.89;102290.47;16116298;19;129373;-41
2023/03/01 19:13:30;;;;;;;10.52;1.60;;;;;;;20.44;22.95;102299.78;16119717;19;130634;-41
2023/03/01 19:18:58;;;;;;;9.50;1.50;;;;;;;20.59;23.27;102291.16;16122773;19;129517;-41
2023/03/01 19:24:20;;;;;;;5.85;1.23;;;;;;;20.77;23.26;102290.38;16118005;19;129494;-44
2023/03/01 19:29:42;;;;;;;7.65;1.30;;;;;;;20.96;23.40;102296.84;16119540;19;129046;-42
2023/03/01 19:35:04;;;;;;;4.28;1.60;;;;;;;21.12;23.28;102288.97;16122709;19;130726;-45
2023/03/01 19:40:26;;;;;;;7.43;1.65;;;;;;;21.15;23.62;102283.81;16119268;19;130205;-43
2023/03/01 19:45:52;;;;;;;2.08;1.08;;;;;;;21.15;23.44;102283.81;16118205;19;129435;-43
2023/03/01 19:51:14;;;;;;;3.80;1.30;;;;;;;21.11;23.42;102281.72;16115617;19;129455;-43
2023/03/01 19:56:36;;;;;;;4.05;1.50;;;;;;;21.06;23.54;102280.47;16112799;19;130709;-43
2023/03/01 20:01:57;;;;;;;8.32;1.88;;;;;;;20.96;23.87;102282.94;16112839;19;129388;-42
2023/03/01 20:07:19;;;;;;;11.98;2.33;;;;;;;20.83;24.06;102286.69;16115901;19;129549;-42
2023/03/01 20:12:41;;;;;;;15.90;2.55;;;;;;;20.74;24.47;102279.69;16112285;19;129604;-45
2023/03/01 20:18:03;;;;;;;12.02;2.08;;;;;;;20.60;24.51;102282.56;16113662;19;129596;-41
2023/03/01 20:23:26;;;;;;;12.65;1.85;;;;;;;20.47;24.74;102293.78;16113229;19;130748;-42
2023/03/01 20:28:51;;;;;;;10.65;1.88;;;;;;;20.36;25.24;102297.31;16116976;19;131247;-43
2023/03/01 20:34:13;;;;;;;10.87;2.03;;;;;;;20.26;25.36;102290.31;16116218;19;132109;-41
2023/03/01 20:39:35;;;;;;;16.90;1.90;;;;;;;20.18;25.70;102295.28;16114263;19;129665;-41
2023/03/01 20:44:57;;;;;;;13.50;1.80;;;;;;;20.08;25.49;102301.31;16114166;19;129517;-41
2023/03/01 20:50:19;;;;;;;9.80;2.10;;;;;;;20.01;25.84;102292.19;16115145;19;129989;-42
2023/03/01 20:55:41;;;;;;;9.15;1.52;;;;;;;19.99;25.63;102276.59;16111484;19;130556;-43
2023/03/01 21:01:04;;;;;;;6.22;1.73;;;;;;;20.01;25.32;102275.53;16123509;19;129817;-41
2023/03/01 21:06:26;;;;;;;10.63;1.65;;;;;;;20.04;25.74;102289.81;16123726;19;129952;-43
2023/03/01 21:11:49;;;;;;;8.48;1.60;;;;;;;20.06;25.88;102282.13;16127215;19;129607;-41
2023/03/01 21:17:14;;;;;;;8.05;1.40;;;;;;;20.08;25.49;102281.88;16127034;19;129617;-44
2023/03/01 21:22:35;;;;;;;6.33;1.53;;;;;;;20.04;26.18;102277.88;16120221;19;130563;-43
2023/03/01 21:27:57;;;;;;;5.53;1.77;;;;;;;19.98;25.73;102271.25;16113077;19;131815;-44
2023/03/01 21:33:19;;;;;;;11.63;1.70;;;;;;;19.92;25.73;102274.91;16125407;19;129591;-41
2023/03/01 21:38:43;;;;;;;9.02;1.90;;;;;;;19.88;25.51;102257.00;16125243;19;129418;-43
2023/03/01 21:44:06;;;;;;;3.55;1.70;;;;;;;19.82;25.23;102259.56;16122649;19;130489;-41
2023/03/01 21:49:28;;;;;;;7.88;2.25;;;;;;;19.74;25.07;102242.31;16124194;19;129718;-44
2023/03/01 21:54:51;;;;;;;3.20;1.98;;;;;;;19.66;24.94;102247.06;16125733;19;129348;-43
2023/03/01 22:00:14;;;;;;;5.22;2.03;;;;;;;19.56;25.15;102245.81;16124319;19;129769;-42
2023/03/01 22:05:36;;;;;;;3.85;2.20;;;;;;;19.49;25.00;102248.63;16122885;19;129340;-45
2023/03/01 22:11:01;;;;;;;2.55;1.70;;;;;;;19.43;25.02;102249.50;16123295;19;129417;-45
2023/03/01 22:16:29;;;;;;;6.60;2.03;;;;;;;19.35;25.25;102242.28;16123614;19;129301;-45
2023/03/01 22:21:52;;;;;;;3.40;1.40;;;;;;;19.28;25.12;102252.53;16122479;19;131559;-43
2023/03/01 22:27:13;;;;;;;2.10;1.55;;;;;;;19.21;24.86;102260.88;16122526;19;130370;-47
2023/03/01 22:32:35;;;;;;;6.78;1.88;;;;;;;19.14;24.88;102254.47;16114760;19;129744;-46
2023/03/01 22:37:57;;;;;;;2.58;1.30;;;;;;;19.05;25.07;102265.81;16120796;19;129203;-48
2023/03/01 22:43:19;;;;;;;2.80;1.38;;;;;;;19.00;25.24;102265.59;16120831;19;129645;-46
2023/03/01 22:48:41;;;;;;;2.67;1.20;;;;;;;18.93;24.99;102275.88;16117047;19;129417;-43
2023/03/01 22:54:03;;;;;;;2.45;1.40;;;;;;;18.87;25.06;102276.72;16121942;19;131685;-43
2023/03/01 22:59:25;;;;;;;2.53;1.30;;;;;;;18.82;25.46;102276.53;16118397;19;130094;-43
2023/03/01 23:04:47;;;;;;;2.67;1.40;;;;;;;18.75;25.49;102270.97;16118785;19;129988;-42
2023/03/01 23:10:11;;;;;;;1.55;1.10;;;;;;;18.70;25.18;102279.94;16117700;19;130498;-42
2023/03/01 23:15:32;;;;;;;2.20;1.40;;;;;;;18.65;25.42;102288.03;16118069;19;129982;-43
2023/03/01 23:20:54;;;;;;;1.77;1.17;;;;;;;18.61;25.56;102275.66;16119790;19;135045;-46
2023/03/01 23:26:17;;;;;;;2.13;1.33;;;;;;;18.55;25.14;102282.06;16116475;19;130365;-45
2023/03/01 23:31:39;;;;;;;3.13;1.42;;;;;;;18.51;25.16;102283.53;16115875;19;131066;-43
2023/03/01 23:37:01;;;;;;;1.65;1.17;;;;;;;18.45;25.49;102275.03;16113696;19;130735;-44
2023/03/01 23:42:23;;;;;;;2.20;1.30;;;;;;;18.41;25.14;102265.44;16114412;19;130954;-50
2023/03/01 23:47:45;;;;;;;3.53;1.30;;;;;;;18.37;25.16;102258.56;16116980;19;130989;-52
2023/03/01 23:53:12;;;;;;;1.85;1.20;;;;;;;18.34;25.14;102252.59;16115802;19;129191;-51
2023/03/01 23:58:34;;;;;;;1.50;1.20;;;;;;;18.29;25.12;102253.25;16115577;19;130605;-52
